createdAt,value
2023-07-03T00:02:29.105Z,64.43
2023-07-03T00:06:32.421Z,65.51
2023-07-03T00:08:33.501Z,65.83
2023-07-03T00:12:36.297Z,66.68
2023-07-03T00:18:40.626Z,65.79
2023-07-03T00:22:43.701Z,65.37
2023-07-03T00:24:44.844Z,65.47
2023-07-03T00:28:47.054Z,65.45
2023-07-03T00:32:50.304Z,65.79
2023-07-03T00:34:52.078Z,65.78
2023-07-03T00:38:55.087Z,65.73
2023-07-03T00:40:56.214Z,65.82
2023-07-03T00:44:59.170Z,65.17
2023-07-03T00:49:01.828Z,64.06
2023-07-03T00:51:03.307Z,63.87
2023-07-03T00:55:05.693Z,63.87
2023-07-03T00:57:07.385Z,63.86
2023-07-03T01:01:19.578Z,62.85
2023-07-03T01:05:14.062Z,61.66
2023-07-03T01:07:15.238Z,61.58
2023-07-03T01:11:17.887Z,61.95
2023-07-03T01:15:20.464Z,62.48
2023-07-03T01:17:21.774Z,62.19
2023-07-03T01:21:24.053Z,62.51
2023-07-03T01:23:25.845Z,62.35
2023-07-03T01:27:28.739Z,61.88
2023-07-03T01:29:29.979Z,62.54
2023-07-03T01:31:31.429Z,64.57
2023-07-03T01:33:32.948Z,63.81
2023-07-03T01:37:35.521Z,62.85
2023-07-03T01:39:37.293Z,62.96
2023-07-03T01:43:40.133Z,62.81
2023-07-03T01:47:42.413Z,63.96
2023-07-03T01:49:44.170Z,63.33
2023-07-03T01:53:47.735Z,63.57
2023-07-03T01:57:49.975Z,64.65
2023-07-03T01:59:50.919Z,65.04
2023-07-03T02:03:53.174Z,65.35
2023-07-03T02:05:54.741Z,65.22
2023-07-03T02:07:56.503Z,64.41
2023-07-03T02:09:57.560Z,64.59
2023-07-03T02:14:00.959Z,67.44
2023-07-03T02:16:02.956Z,66.73
2023-07-03T02:20:05.840Z,65.65
2023-07-03T02:22:06.775Z,65.61
2023-07-03T02:24:08.469Z,65.83
2023-07-03T02:30:12.458Z,64.81
2023-07-03T02:32:13.324Z,64.57
2023-07-03T02:36:15.943Z,65.23
2023-07-03T02:38:17.194Z,65.02
2023-07-03T02:42:28.542Z,64.35
2023-07-03T02:46:23.277Z,63.7
2023-07-03T02:48:24.886Z,63.9
2023-07-03T02:52:27.385Z,63.7
2023-07-03T02:56:29.900Z,63.42
2023-07-03T02:58:31.413Z,63.47
2023-07-03T03:02:34.044Z,63.9
2023-07-03T03:04:35.813Z,63.74
2023-07-03T03:08:38.521Z,63.82
2023-07-03T03:10:39.652Z,64.01
2023-07-03T03:14:42.191Z,63.39
2023-07-03T03:18:44.060Z,64.24
2023-07-03T03:20:45.922Z,64.29
2023-07-03T03:24:48.642Z,64.14
2023-07-03T03:26:50.109Z,63.92
2023-07-03T03:28:51.869Z,63.91
2023-07-03T03:34:54.836Z,63.95
2023-07-03T03:38:57.307Z,63.66
2023-07-03T03:40:59.207Z,63.58
2023-07-03T03:45:01.756Z,63.8
2023-07-03T03:47:03.487Z,63.87
2023-07-03T03:51:06.977Z,63.77
2023-07-03T03:55:19.808Z,63.95
2023-07-03T03:57:10.881Z,63.75
2023-07-03T03:59:56.323Z,63.63
2023-07-03T04:01:57.584Z,63.93
2023-07-03T04:06:00.109Z,63.97
2023-07-03T04:08:01.633Z,63.54
2023-07-03T04:12:04.469Z,63.83
2023-07-03T04:18:08.566Z,64.18
2023-07-03T04:22:12.313Z,64.21
2023-07-03T04:24:13.395Z,63.64
2023-07-03T04:26:15.369Z,63.4
2023-07-03T04:28:16.638Z,63.24
2023-07-03T04:32:19.296Z,63.44
2023-07-03T04:34:20.922Z,63.43
2023-07-03T04:38:22.911Z,63.63
2023-07-03T04:40:24.891Z,63.43
2023-07-03T04:42:25.409Z,63.71
2023-07-03T04:44:26.691Z,63.82
2023-07-03T04:50:30.660Z,63.72
2023-07-03T04:52:31.493Z,63.98
2023-07-03T04:54:32.755Z,63.65
2023-07-03T04:56:34.315Z,63.34
2023-07-03T04:58:35.260Z,63.47
2023-07-03T05:00:37.080Z,63.44
2023-07-03T05:02:38.127Z,63.68
2023-07-03T05:04:39.401Z,63.55
2023-07-03T05:10:43.901Z,63.73
2023-07-03T05:12:45.356Z,63.73
2023-07-03T05:16:48.234Z,63.56
2023-07-03T05:20:50.686Z,63.95
2023-07-03T05:22:51.567Z,63.64
2023-07-03T05:26:54.114Z,63.54
2023-07-03T05:28:55.301Z,63.46
2023-07-03T05:32:57.512Z,63.17
2023-07-03T05:36:59.762Z,63.14
2023-07-03T05:39:00.794Z,63.15
2023-07-03T05:43:03.140Z,62.97
2023-07-03T05:47:07.773Z,62.43
2023-07-03T05:49:07.202Z,62.66
2023-07-03T05:53:10.394Z,61.39
2023-07-03T05:55:11.672Z,61.58
2023-07-03T05:57:12.899Z,61.55
2023-07-03T06:03:20.078Z,61.87
2023-07-03T06:05:18.388Z,61.45
2023-07-03T06:09:21.174Z,61.38
2023-07-03T06:11:22.015Z,61.25
2023-07-03T06:15:24.738Z,61.74
2023-07-03T06:19:27.034Z,61.4
2023-07-03T06:21:29.044Z,61.75
2023-07-03T06:25:31.924Z,61.6
2023-07-03T06:29:34.452Z,61.42
2023-07-03T06:31:35.904Z,62.28
2023-07-03T06:35:38.331Z,61.16
2023-07-03T06:37:39.990Z,60.95
2023-07-03T06:39:41.405Z,61.3
2023-07-03T06:41:42.792Z,61.04
2023-07-03T06:45:46.782Z,59.44
2023-07-03T06:47:48.576Z,59.02
2023-07-03T06:51:52.473Z,58.16
2023-07-03T06:53:53.699Z,58.71
2023-07-03T06:57:56.265Z,59.1
2023-07-03T06:59:57.159Z,58.97
2023-07-03T07:03:59.186Z,58.35
2023-07-03T07:08:01.949Z,57.04
2023-07-03T07:14:06.676Z,57.53
2023-07-03T07:18:09.700Z,57.55
2023-07-03T07:20:11.200Z,55.75
2023-07-03T07:22:12.361Z,55.68
2023-07-03T07:24:13.330Z,55.86
2023-07-03T07:28:15.638Z,55.7
2023-07-03T07:30:17.811Z,55.35
2023-07-03T07:34:20.073Z,55.89
2023-07-03T07:36:21.071Z,55.08
2023-07-03T07:40:22.975Z,55.42
2023-07-03T07:44:25.090Z,55.18
2023-07-03T07:46:26.350Z,55.03
2023-07-03T07:50:29.544Z,54.96
2023-07-03T07:52:30.768Z,53.47
2023-07-03T07:56:34.318Z,52.28
2023-07-03T08:00:35.875Z,51.99
2023-07-03T08:02:36.873Z,51.86
2023-07-03T08:04:37.980Z,52.81
2023-07-03T08:08:41.163Z,52.08
2023-07-03T08:10:42.733Z,52.84
2023-07-03T08:12:44.252Z,51.79
2023-07-03T08:14:45.779Z,50.53
2023-07-03T08:18:49.797Z,51.91
2023-07-03T08:20:49.919Z,52.72
2023-07-03T08:22:51.122Z,51.63
2023-07-03T08:26:54.828Z,52.49
2023-07-03T08:28:57.311Z,53.17
2023-07-03T08:30:58.605Z,54.01
2023-07-03T08:32:59.653Z,53.23
2023-07-03T08:39:04.035Z,55.51
2023-07-03T08:41:05.345Z,55.01
2023-07-03T08:45:07.578Z,54.86
2023-07-03T08:49:10.548Z,54.1
2023-07-03T08:51:12.236Z,54.84
2023-07-03T08:55:14.634Z,52.54
2023-07-03T08:59:18.678Z,51.52
2023-07-03T09:01:20.500Z,52.78
2023-07-03T09:05:24.436Z,52.89
2023-07-03T09:09:25.369Z,50.75
2023-07-03T09:11:27.050Z,49.52
2023-07-03T09:15:29.061Z,50.31
2023-07-03T09:17:30.079Z,50.44
2023-07-03T09:21:33.366Z,51.13
2023-07-03T09:23:34.177Z,50.21
2023-07-03T09:25:36.687Z,47.58
2023-07-03T09:31:38.896Z,48.31
2023-07-03T09:33:39.863Z,49.19
2023-07-03T09:37:42.861Z,48.14
2023-07-03T09:41:44.875Z,48
2023-07-03T09:43:46.205Z,46.8
2023-07-03T09:47:48.446Z,47.85
2023-07-03T09:51:50.503Z,47.79
2023-07-03T09:53:51.438Z,48.73
2023-07-03T09:57:53.903Z,48.18
2023-07-03T09:59:55.648Z,48.32
2023-07-03T10:03:58.056Z,48.53
2023-07-03T10:08:01.610Z,47.71
2023-07-03T10:14:04.925Z,47.91
2023-07-03T10:16:05.848Z,46.71
2023-07-03T10:20:08.843Z,48.91
2023-07-03T10:24:12.015Z,47.84
2023-07-03T10:26:12.910Z,48.09
2023-07-03T10:30:15.343Z,48.55
2023-07-03T10:34:17.745Z,49.72
2023-07-03T10:36:19.206Z,50.28
2023-07-03T10:40:21.457Z,49.2
2023-07-03T10:42:22.642Z,48.71
2023-07-03T10:47:09.516Z,47.83
2023-07-03T10:49:11.302Z,48.34
2023-07-03T10:51:12.478Z,48.09
2023-07-03T10:53:13.907Z,49.17
2023-07-03T10:57:16.907Z,49.81
2023-07-03T11:01:19.640Z,49.36
2023-07-03T11:03:20.909Z,49.77
2023-07-03T11:07:22.982Z,49.95
2023-07-03T11:09:24.721Z,50.27
2023-07-03T11:13:27.549Z,50.09
2023-07-03T11:17:30.022Z,50.39
2023-07-03T11:23:34.650Z,49.99
2023-07-03T11:29:38.529Z,49.75
2023-07-03T11:39:45.676Z,50.7
2023-07-03T11:43:48.158Z,50.21
2023-07-03T11:45:50.097Z,50.18
2023-07-03T11:49:52.452Z,50.48
2023-07-03T11:51:54.258Z,50.97
2023-07-03T11:55:55.991Z,49.45
2023-07-03T11:59:59.054Z,49.42
2023-07-03T12:02:00.313Z,49.54
2023-07-03T12:06:03.610Z,47.17
2023-07-03T12:10:05.767Z,47.58
2023-07-03T12:12:07.203Z,47.49
2023-07-03T12:16:11.112Z,46.99
2023-07-03T12:18:12.735Z,48.34
2023-07-03T12:22:15.469Z,46.25
2023-07-03T12:26:18.099Z,45.27
2023-07-03T12:28:18.953Z,44.22
2023-07-03T12:32:22.181Z,45.41
2023-07-03T12:34:23.530Z,45.46
2023-07-03T12:38:26.080Z,43.97
2023-07-03T12:42:29.460Z,46.91
2023-07-03T12:44:29.597Z,44.91
2023-07-03T12:48:32.110Z,45.26
2023-07-03T12:52:34.011Z,45.31
2023-07-03T12:54:35.560Z,45.95
2023-07-03T12:56:37.159Z,45.42
2023-07-03T13:00:40.175Z,45.13
2023-07-03T13:02:41.317Z,45.13
2023-07-03T13:04:42.830Z,44.92
2023-07-03T13:08:46.579Z,45.25
2023-07-03T13:10:47.813Z,45
2023-07-03T13:12:49.344Z,44.75
2023-07-03T13:14:50.380Z,44.59
2023-07-03T13:18:52.205Z,45.35
2023-07-03T13:22:54.219Z,43.62
2023-07-03T13:26:57.275Z,43.13
2023-07-03T13:31:00.251Z,43.57
2023-07-03T13:33:01.905Z,43.33
2023-07-03T13:37:04.202Z,42.92
2023-07-03T13:41:06.559Z,43.62
2023-07-03T13:43:08.312Z,44.09
2023-07-03T13:47:11.416Z,44.04
2023-07-03T13:51:13.401Z,44.64
2023-07-03T13:53:14.941Z,44.36
2023-07-03T13:57:17.240Z,44.16
2023-07-03T13:59:18.970Z,43.65
2023-07-03T14:03:21.254Z,42.92
2023-07-03T14:07:24.344Z,41.45
2023-07-03T14:09:25.947Z,42.08
2023-07-03T14:13:27.806Z,43
2023-07-03T14:15:29.440Z,43.76
2023-07-03T14:19:31.136Z,43.75
2023-07-03T14:23:34.018Z,45.16
2023-07-03T14:25:35.089Z,45.36
2023-07-03T14:29:37.072Z,45.73
2023-07-03T14:33:39.473Z,44.53
2023-07-03T14:35:40.471Z,44.13
2023-07-03T14:39:42.364Z,44.88
2023-07-03T14:41:43.265Z,45.77
2023-07-03T14:45:45.929Z,45.61
2023-07-03T14:49:49.386Z,45.26
2023-07-03T14:51:51.046Z,46.34
2023-07-03T14:53:52.149Z,46.78
2023-07-03T14:55:53.076Z,46.03
2023-07-03T15:01:56.978Z,46.69
2023-07-03T15:03:58.372Z,45.72
2023-07-03T15:05:59.550Z,45.98
2023-07-03T15:08:00.459Z,47.03
2023-07-03T15:12:02.924Z,47
2023-07-03T15:14:03.968Z,45.77
2023-07-03T15:18:07.005Z,45.99
2023-07-03T15:22:09.232Z,45.69
2023-07-03T15:24:10.461Z,46.86
2023-07-03T15:28:13.227Z,46.8
2023-07-03T15:32:15.887Z,47.79
2023-07-03T15:34:16.990Z,48.16
2023-07-03T15:36:18.317Z,46.4
2023-07-03T15:38:19.295Z,45.77
2023-07-03T15:44:22.070Z,46.49
2023-07-03T15:46:23.451Z,46.2
2023-07-03T15:48:25.129Z,45.4
2023-07-03T15:50:26.540Z,45.12
2023-07-03T15:54:29.295Z,46.1
2023-07-03T15:56:30.163Z,45.91
2023-07-03T16:00:32.698Z,45.15
2023-07-03T16:04:35.863Z,44.17
2023-07-03T16:06:37.195Z,44.35
2023-07-03T16:10:39.740Z,46.64
2023-07-03T16:14:41.794Z,47.36
2023-07-03T16:16:42.770Z,47.47
2023-07-03T16:20:44.696Z,46.6
2023-07-03T16:22:45.764Z,47.51
2023-07-03T16:24:47.013Z,47.76
2023-07-03T16:26:47.829Z,47.6
2023-07-03T16:30:51.099Z,46.41
2023-07-03T16:32:52.219Z,47.03
2023-07-03T16:34:53.950Z,46.41
2023-07-03T16:36:55.237Z,46.06
2023-07-03T16:38:56.082Z,47.29
2023-07-03T16:42:58.883Z,47.39
2023-07-03T16:47:01.157Z,48.61
2023-07-03T16:49:02.286Z,48.9
2023-07-03T16:51:03.144Z,48.8
2023-07-03T16:53:04.255Z,48.86
2023-07-03T16:57:06.145Z,48.4
2023-07-03T16:59:07.679Z,49.32
2023-07-03T17:01:08.832Z,49.61
2023-07-03T17:03:10.098Z,50.02
2023-07-03T17:05:11.660Z,50.25
2023-07-03T17:09:14.920Z,51.34
2023-07-03T17:13:17.351Z,51.26
2023-07-03T17:15:18.188Z,51.29
2023-07-03T17:19:21.281Z,51.94
2023-07-03T17:21:23.067Z,51.85
2023-07-03T17:25:25.900Z,51.59
2023-07-03T17:30:12.623Z,51.63
2023-07-03T17:32:16.217Z,51.67
2023-07-03T17:36:16.378Z,51.53
2023-07-03T17:40:19.221Z,51.87
2023-07-03T17:42:20.430Z,51.96
2023-07-03T17:46:23.101Z,52.37
2023-07-03T17:50:26.103Z,52.49
2023-07-03T17:52:27.744Z,52.53
2023-07-03T17:56:30.490Z,52.75
2023-07-03T17:58:31.879Z,52.89
2023-07-03T18:02:34.805Z,54.23
2023-07-03T18:04:36.132Z,54.88
2023-07-03T18:06:37.460Z,55.47
2023-07-03T18:12:41.809Z,56.37
2023-07-03T18:14:43.532Z,56.77
2023-07-03T18:16:44.632Z,56.89
2023-07-03T18:18:46.011Z,57.2
2023-07-03T18:22:48.543Z,56.89
2023-07-03T18:24:49.497Z,57.06
2023-07-03T18:28:52.155Z,57.75
2023-07-03T18:34:55.770Z,59.02
2023-07-03T18:38:58.902Z,59.24
2023-07-03T18:41:00.208Z,59.55
2023-07-03T18:45:02.521Z,60.11
2023-07-03T18:49:04.955Z,60.52
2023-07-03T18:51:05.918Z,60.66
2023-07-03T18:55:08.838Z,60.89
2023-07-03T18:57:10.155Z,60.84
2023-07-03T19:01:12.542Z,60.83
2023-07-03T19:05:15.609Z,61.14
2023-07-03T19:07:16.955Z,61.25
2023-07-03T19:11:18.800Z,61.55
2023-07-03T19:13:20.086Z,61.62
2023-07-03T19:15:21.320Z,61.75
2023-07-03T19:21:25.444Z,61.9
2023-07-03T19:23:26.942Z,62.26
2023-07-03T19:27:29.956Z,62.07
2023-07-03T19:29:31.323Z,62.11
2023-07-03T19:31:32.264Z,62.42
2023-07-03T19:37:36.388Z,64.47
2023-07-03T19:39:37.240Z,64.9
2023-07-03T19:43:48.834Z,67.57
2023-07-03T19:45:41.267Z,70.15
2023-07-03T19:47:42.743Z,71.54
2023-07-03T19:49:44.182Z,71.75
2023-07-03T19:53:46.150Z,74.37
2023-07-03T19:55:47.992Z,76.76
2023-07-03T19:59:50.607Z,80.91
2023-07-03T20:03:52.689Z,83.59
2023-07-03T20:05:54.187Z,84.92
2023-07-03T20:07:55.378Z,84.68
2023-07-03T20:13:59.672Z,86.46
2023-07-03T20:16:01.339Z,86.26
2023-07-03T20:20:04.681Z,86.37
2023-07-03T20:22:05.951Z,86.4
2023-07-03T20:24:07.025Z,86.88
2023-07-03T20:26:08.332Z,87.25
2023-07-03T20:30:10.223Z,87.56
2023-07-03T20:32:11.137Z,87.77
2023-07-03T20:34:12.288Z,87.62
2023-07-03T20:36:13.904Z,87.29
2023-07-03T20:38:16.489Z,86.86
2023-07-03T20:42:18.003Z,87.27
2023-07-03T20:44:18.894Z,87.22
2023-07-03T20:46:19.931Z,87.26
2023-07-03T20:48:21.250Z,87.31
2023-07-03T20:52:24.053Z,87.11
2023-07-03T20:54:24.941Z,87.46
2023-07-03T20:58:27.796Z,86.9
2023-07-03T21:02:29.985Z,87.34
2023-07-03T21:04:31.798Z,87.16
2023-07-03T21:08:34.729Z,86.89
2023-07-03T21:12:37.143Z,87.38
2023-07-03T21:14:38.425Z,87.21
2023-07-03T21:18:41.326Z,87.11
2023-07-03T21:20:42.791Z,87.24
2023-07-03T21:24:45.590Z,86.9
2023-07-03T21:28:47.963Z,86.59
2023-07-03T21:30:49.281Z,86.51
2023-07-03T21:34:52.565Z,86.52
2023-07-03T21:36:53.465Z,86.46
2023-07-03T21:40:55.988Z,86.73
2023-07-03T21:44:58.709Z,87.47
2023-07-03T21:47:00.303Z,87.48
2023-07-03T21:51:02.755Z,86.91
2023-07-03T21:55:05.162Z,87.34
2023-07-03T21:57:06.943Z,87.65
2023-07-03T22:01:09.492Z,87.85
2023-07-03T22:03:10.693Z,87.86
2023-07-03T22:07:13.638Z,87.44
2023-07-03T22:11:16.703Z,87.62
2023-07-03T22:13:17.684Z,87.54
2023-07-03T22:17:20.920Z,86.67
2023-07-03T22:19:22.215Z,86.81
2023-07-03T22:23:31.237Z,87.21
2023-07-03T22:27:28.036Z,87.55
2023-07-03T22:29:29.114Z,87.6
2023-07-03T22:33:31.724Z,88.33
2023-07-03T22:37:33.935Z,88.54
2023-07-03T22:39:35.517Z,88.85
2023-07-03T22:43:38.094Z,88.56
2023-07-03T22:45:39.392Z,87.71
2023-07-03T22:49:42.072Z,87.47
2023-07-03T22:53:45.161Z,87.26
2023-07-03T22:55:46.606Z,87.21
2023-07-03T22:59:49.099Z,87.01
2023-07-03T23:01:50.671Z,86.66
2023-07-03T23:05:53.059Z,86.9
2023-07-03T23:09:56.128Z,87.6
2023-07-03T23:11:57.260Z,87.7
2023-07-03T23:18:00.979Z,88.43
2023-07-03T23:22:04.303Z,88.83
2023-07-03T23:26:07.679Z,89.26
2023-07-03T23:28:08.747Z,88.92
2023-07-03T23:32:11.241Z,89.49
2023-07-03T23:34:13.044Z,89.44
2023-07-03T23:38:15.656Z,89.71
2023-07-03T23:42:19.247Z,90.08
2023-07-03T23:44:20.919Z,89.88
2023-07-03T23:48:23.029Z,90.22
2023-07-03T23:50:24.885Z,90.09
2023-07-03T23:54:27.894Z,89.4
2023-07-03T23:58:30.789Z,89.37
